Tomahawk, Kentucky
Current Conditions -  °F | °C
As of 4:55 PM on Monday 22 Dec 2014 (Local Time) from KSJS Reporting Station
Scattered Clouds Scattered Clouds  
Wind Chill: 52°   Ceiling: Unl
Heat Index: 52°   Visibility: 10mi
Dew Point: 40°   Wind: 7mph
Humidity: 63%   Direction: 80°E
Pressure: 29.84"   Gusts: NA
Location:  37.83°N, 82.62°W
Report Text: KSJS 222155Z AUTO 08006KT 10SM SCT095 11/05 A2984 RMK AO2 T01130045
Loading
Personal Weather Stations






























Interactive Weather Map New forecast layout! Learn more

10-Day Weather Forecast

Advertisements
Track Severe Weather on mobile